Time;durP1;ratioP1;P1;durP2;ratioP2;P2;SDS_P1;SDS_P2;PMS_P1;PMS_P2;Temp;Humidity;BMP_temperature;BMP_pressure;BME280_temperature;BME280_humidity;BME280_pressure;Samples;Min_cycle;Max_cycle;Signal;HPM_P1;HPM_P2
2021/05/20 00:00:36;;;;;;;6.20;0.93;;;;;;;;;;5052584;28;20057;-5
2021/05/20 00:03:02;;;;;;;1.27;0.93;;;;;;;;;;5052084;28;20063;-5
2021/05/20 00:05:27;;;;;;;1.08;0.77;;;;;;;;;;5052488;28;20041;-4
2021/05/20 00:07:52;;;;;;;1.45;0.95;;;;;;;;;;5052147;28;20013;-4
2021/05/20 00:10:18;;;;;;;1.45;1.08;;;;;;;;;;5052146;28;20047;-5
2021/05/20 00:12:45;;;;;;;3.00;0.90;;;;;;;;;;5052287;28;20049;-10
2021/05/20 00:15:11;;;;;;;2.60;1.23;;;;;;;;;;5052268;28;20537;-4
2021/05/20 00:17:36;;;;;;;2.10;1.05;;;;;;;;;;5056107;28;20017;-6
2021/05/20 00:20:03;;;;;;;0.90;0.90;;;;;;;;;;5056099;28;20471;-5
2021/05/20 00:22:29;;;;;;;1.42;1.15;;;;;;;;;;5056250;28;20056;-5
2021/05/20 00:24:54;;;;;;;2.45;1.00;;;;;;;;;;5055907;28;20078;-4
2021/05/20 00:27:20;;;;;;;1.73;1.17;;;;;;;;;;5054750;28;20013;-5
2021/05/20 00:29:48;;;;;;;1.75;0.80;;;;;;;;;;5056157;28;20051;-6
2021/05/20 00:32:14;;;;;;;1.10;0.70;;;;;;;;;;5056118;28;20028;-5
2021/05/20 00:34:39;;;;;;;0.82;0.70;;;;;;;;;;5056090;28;20210;-4
2021/05/20 00:37:04;;;;;;;1.67;0.80;;;;;;;;;;5055773;28;20017;-5
2021/05/20 00:39:30;;;;;;;1.05;0.95;;;;;;;;;;5055793;28;20028;-5
2021/05/20 00:41:55;;;;;;;0.82;0.80;;;;;;;;;;5054304;28;20024;-5
2021/05/20 00:44:21;;;;;;;1.27;0.90;;;;;;;;;;5055954;28;20068;-5
2021/05/20 00:46:46;;;;;;;1.48;1.00;;;;;;;;;;5054469;28;20023;-5
2021/05/20 00:49:11;;;;;;;1.65;0.95;;;;;;;;;;5055592;28;20039;-5
2021/05/20 00:51:40;;;;;;;1.48;0.80;;;;;;;;;;5055877;28;20052;-5
2021/05/20 00:54:05;;;;;;;0.70;0.70;;;;;;;;;;5055126;28;20480;-5
2021/05/20 00:56:33;;;;;;;1.20;0.93;;;;;;;;;;5055529;28;20032;-5
2021/05/20 00:58:58;;;;;;;2.00;1.02;;;;;;;;;;5055593;28;20392;-4
2021/05/20 01:01:24;;;;;;;1.60;1.02;;;;;;;;;;5055574;28;20024;-6
2021/05/20 01:03:49;;;;;;;0.82;0.75;;;;;;;;;;5054245;28;20090;-5
2021/05/20 01:06:15;;;;;;;1.17;0.95;;;;;;;;;;5055600;28;20059;-5
2021/05/20 01:08:40;;;;;;;0.68;0.60;;;;;;;;;;5055504;28;20478;-6
2021/05/20 01:11:06;;;;;;;1.88;0.82;;;;;;;;;;5055412;28;20518;-5
2021/05/20 01:13:31;;;;;;;1.80;0.70;;;;;;;;;;5054975;28;20033;-5
2021/05/20 01:15:56;;;;;;;0.82;0.75;;;;;;;;;;5055002;28;20021;-5
2021/05/20 01:18:22;;;;;;;0.98;0.65;;;;;;;;;;5055370;28;20052;-6
2021/05/20 01:20:47;;;;;;;7.82;0.90;;;;;;;;;;5054947;28;20099;-5
2021/05/20 01:23:17;;;;;;;1.00;0.95;;;;;;;;;;5054836;28;20075;-6
2021/05/20 01:25:44;;;;;;;3.55;0.90;;;;;;;;;;5054938;28;20251;-5
2021/05/20 01:28:10;;;;;;;4.60;1.25;;;;;;;;;;5054543;28;20037;-6
2021/05/20 01:30:37;;;;;;;1.33;1.13;;;;;;;;;;5054843;28;20012;-5
2021/05/20 01:33:02;;;;;;;0.93;0.70;;;;;;;;;;5054614;28;20029;-4
2021/05/20 01:35:27;;;;;;;1.50;1.17;;;;;;;;;;5054861;28;20029;-6
2021/05/20 01:38:10;;;;;;;3.22;0.98;;;;;;;;;;5054830;28;20098;-6
2021/05/20 01:40:36;;;;;;;1.40;1.30;;;;;;;;;;5054994;28;20029;-6
2021/05/20 01:43:01;;;;;;;1.88;1.23;;;;;;;;;;5054412;28;20075;-6
2021/05/20 01:45:27;;;;;;;1.17;1.05;;;;;;;;;;5054850;28;20032;-6
2021/05/20 01:47:52;;;;;;;3.20;1.27;;;;;;;;;;5054704;28;20479;-5
2021/05/20 01:50:20;;;;;;;2.60;1.17;;;;;;;;;;5054432;28;20476;-7
2021/05/20 01:52:45;;;;;;;3.15;1.08;;;;;;;;;;5053370;28;20044;-5
2021/05/20 01:55:11;;;;;;;1.27;0.82;;;;;;;;;;5053997;28;20487;-6
2021/05/20 01:57:36;;;;;;;3.13;0.93;;;;;;;;;;5054296;28;20192;-6
2021/05/20 02:00:02;;;;;;;3.45;1.10;;;;;;;;;;5054439;28;20040;-6
2021/05/20 02:02:30;;;;;;;1.55;0.90;;;;;;;;;;5054174;28;20017;-5
2021/05/20 02:04:55;;;;;;;1.17;0.65;;;;;;;;;;5054100;28;20039;-6
2021/05/20 02:07:20;;;;;;;1.08;0.68;;;;;;;;;;5054179;28;20371;-6
2021/05/20 02:09:46;;;;;;;1.77;0.80;;;;;;;;;;5053952;28;20462;-5
2021/05/20 02:12:11;;;;;;;4.70;0.80;;;;;;;;;;5054006;28;20024;-5
2021/05/20 02:14:36;;;;;;;2.53;0.90;;;;;;;;;;5052965;28;20108;-5
2021/05/20 02:17:02;;;;;;;13.18;1.23;;;;;;;;;;5053814;28;20020;-5
2021/05/20 02:19:27;;;;;;;5.20;0.75;;;;;;;;;;5052704;28;20057;-5
2021/05/20 02:21:52;;;;;;;0.70;0.68;;;;;;;;;;5053713;28;20021;-5
2021/05/20 02:24:18;;;;;;;0.90;0.73;;;;;;;;;;5053869;28;20090;-5
2021/05/20 02:26:43;;;;;;;1.52;0.80;;;;;;;;;;5053943;28;20029;-5
2021/05/20 02:29:08;;;;;;;3.60;1.00;;;;;;;;;;5053703;28;20025;-5
2021/05/20 02:31:34;;;;;;;1.05;0.68;;;;;;;;;;5053682;28;20021;-6
2021/05/20 02:34:00;;;;;;;1.45;0.80;;;;;;;;;;5053596;28;20072;-5
2021/05/20 02:36:25;;;;;;;1.52;0.90;;;;;;;;;;5053669;28;20017;-6
2021/05/20 02:38:50;;;;;;;2.28;1.45;;;;;;;;;;5052926;28;20029;-5
2021/05/20 02:41:16;;;;;;;2.88;1.45;;;;;;;;;;5053433;28;20465;-6
2021/05/20 02:43:41;;;;;;;3.25;1.35;;;;;;;;;;5053412;28;20497;-5
2021/05/20 02:46:07;;;;;;;3.25;1.27;;;;;;;;;;5053260;28;20040;-5
2021/05/20 02:48:32;;;;;;;2.70;1.05;;;;;;;;;;5053372;28;20031;-6
2021/05/20 02:50:57;;;;;;;3.33;1.40;;;;;;;;;;5053543;28;20025;-6
2021/05/20 02:53:23;;;;;;;6.63;1.30;;;;;;;;;;5053479;28;20036;-5
2021/05/20 02:55:48;;;;;;;3.28;1.20;;;;;;;;;;5052879;28;20495;-5
2021/05/20 02:58:16;;;;;;;0.93;0.80;;;;;;;;;;5053189;28;20028;-5
2021/05/20 03:00:42;;;;;;;2.50;1.17;;;;;;;;;;5053042;28;20025;-5
2021/05/20 03:03:07;;;;;;;1.52;0.98;;;;;;;;;;5053252;28;20036;-5
2021/05/20 03:05:33;;;;;;;1.33;0.82;;;;;;;;;;5053319;28;20372;-6
2021/05/20 03:07:58;;;;;;;2.17;1.15;;;;;;;;;;5052936;28;20439;-6
2021/05/20 03:10:24;;;;;;;0.98;0.88;;;;;;;;;;5053183;28;20021;-6
2021/05/20 03:12:50;;;;;;;2.95;0.90;;;;;;;;;;5052861;28;20104;-5
2021/05/20 03:15:15;;;;;;;2.38;1.30;;;;;;;;;;5052846;28;20377;-6
2021/05/20 03:17:40;;;;;;;2.88;1.33;;;;;;;;;;5052789;28;20555;-5
2021/05/20 03:20:06;;;;;;;2.08;1.10;;;;;;;;;;5053015;28;20025;-5
2021/05/20 03:22:32;;;;;;;5.18;1.40;;;;;;;;;;5052642;28;20056;-5
2021/05/20 03:24:57;;;;;;;2.80;2.00;;;;;;;;;;5052873;28;20155;-5
2021/05/20 03:27:23;;;;;;;10.80;4.90;;;;;;;;;;5052960;28;20361;-5
2021/05/20 03:29:48;;;;;;;2.08;1.50;;;;;;;;;;5052551;28;20128;-6
2021/05/20 03:32:14;;;;;;;2.95;1.50;;;;;;;;;;5052634;28;20029;-5
2021/05/20 03:34:39;;;;;;;7.65;3.03;;;;;;;;;;5052788;28;20120;-4
2021/05/20 03:37:05;;;;;;;4.35;2.13;;;;;;;;;;5052640;28;20021;-6
2021/05/20 03:39:31;;;;;;;3.65;1.67;;;;;;;;;;5052835;28;20622;-5
2021/05/20 03:41:56;;;;;;;3.75;1.67;;;;;;;;;;5052640;28;20468;-4
2021/05/20 03:44:21;;;;;;;2.83;1.83;;;;;;;;;;5052672;28;20024;-6
2021/05/20 03:46:47;;;;;;;1.52;1.23;;;;;;;;;;5052581;28;20029;-6
2021/05/20 03:49:13;;;;;;;2.13;1.65;;;;;;;;;;5052476;28;20388;-6
2021/05/20 03:51:38;;;;;;;2.05;1.20;;;;;;;;;;5052247;28;20037;-5
2021/05/20 03:54:04;;;;;;;2.47;1.55;;;;;;;;;;5050777;28;20049;-5
2021/05/20 03:56:29;;;;;;;5.85;1.90;;;;;;;;;;5052311;28;20063;-5
2021/05/20 03:58:55;;;;;;;2.95;1.67;;;;;;;;;;5052195;28;20017;-5
2021/05/20 04:01:20;;;;;;;3.47;1.95;;;;;;;;;;5052247;28;20029;-5
2021/05/20 04:03:46;;;;;;;3.45;1.63;;;;;;;;;;5050909;28;20048;-5
2021/05/20 04:06:12;;;;;;;2.42;1.88;;;;;;;;;;5050829;28;20033;-6
2021/05/20 04:08:37;;;;;;;1.70;1.23;;;;;;;;;;5052258;28;20048;-5
2021/05/20 04:11:03;;;;;;;4.03;1.73;;;;;;;;;;5052346;28;20432;-6
2021/05/20 04:13:28;;;;;;;4.35;1.60;;;;;;;;;;5052324;28;20021;-6
2021/05/20 04:15:54;;;;;;;3.92;1.88;;;;;;;;;;5051990;28;20041;-6
2021/05/20 04:18:19;;;;;;;5.70;1.60;;;;;;;;;;5052126;28;20026;-5
2021/05/20 04:20:45;;;;;;;2.95;1.88;;;;;;;;;;5052025;28;20025;-6
2021/05/20 04:23:10;;;;;;;2.83;1.58;;;;;;;;;;5051855;28;20017;-6
2021/05/20 04:25:36;;;;;;;10.02;4.03;;;;;;;;;;5050802;28;20029;-3
2021/05/20 04:28:01;;;;;;;4.53;3.38;;;;;;;;;;5051787;28;20021;-4
2021/05/20 04:30:26;;;;;;;1.65;1.10;;;;;;;;;;5052091;28;20108;-6
2021/05/20 04:32:53;;;;;;;1.98;1.13;;;;;;;;;;5051809;28;20066;-6
2021/05/20 04:35:19;;;;;;;1.27;0.90;;;;;;;;;;5051847;28;20049;-4
2021/05/20 04:37:44;;;;;;;1.15;0.90;;;;;;;;;;5051981;28;20099;-6
2021/05/20 04:40:10;;;;;;;2.63;1.38;;;;;;;;;;5051860;28;20025;-5
2021/05/20 04:42:36;;;;;;;3.10;1.38;;;;;;;;;;5052098;28;20025;-4
2021/05/20 04:45:01;;;;;;;1.92;1.50;;;;;;;;;;5051777;28;20025;-6
2021/05/20 04:47:26;;;;;;;2.33;1.77;;;;;;;;;;5051808;28;20096;-5
2021/05/20 04:49:52;;;;;;;3.20;2.08;;;;;;;;;;5052000;28;20448;-5
2021/05/20 04:52:17;;;;;;;5.10;1.42;;;;;;;;;;5051781;28;20104;-5
2021/05/20 04:54:43;;;;;;;1.80;1.55;;;;;;;;;;5051689;28;20077;-5
2021/05/20 04:57:08;;;;;;;10.32;2.03;;;;;;;;;;5051680;28;20483;-6
2021/05/20 04:59:34;;;;;;;2.92;2.00;;;;;;;;;;5050381;28;20112;-5
2021/05/20 05:01:59;;;;;;;4.30;2.00;;;;;;;;;;5052927;28;20017;-4
2021/05/20 05:04:24;;;;;;;2.13;1.90;;;;;;;;;;5055587;28;20040;-6
2021/05/20 05:06:50;;;;;;;5.25;1.98;;;;;;;;;;5055539;28;20017;-6
2021/05/20 05:09:15;;;;;;;1.52;1.10;;;;;;;;;;5055253;28;20021;-6
2021/05/20 05:11:40;;;;;;;2.47;1.52;;;;;;;;;;5055105;28;20043;-4
2021/05/20 05:14:06;;;;;;;3.40;2.28;;;;;;;;;;5055106;28;20044;-6
2021/05/20 05:16:31;;;;;;;6.07;1.75;;;;;;;;;;5055079;28;20162;-6
2021/05/20 05:18:57;;;;;;;3.70;2.35;;;;;;;;;;5055323;28;20057;-6
2021/05/20 05:21:22;;;;;;;3.42;2.30;;;;;;;;;;5055110;28;20106;-5
2021/05/20 05:23:47;;;;;;;3.83;2.95;;;;;;;;;;5054821;28;20033;-5
2021/05/20 05:26:13;;;;;;;3.25;2.40;;;;;;;;;;5055256;28;20021;-3
2021/05/20 05:28:38;;;;;;;2.35;1.73;;;;;;;;;;5054964;28;20048;-6
2021/05/20 05:31:04;;;;;;;5.13;1.67;;;;;;;;;;5054706;28;20021;-3
2021/05/20 05:33:29;;;;;;;2.80;1.83;;;;;;;;;;5054838;28;20017;-4
2021/05/20 05:35:55;;;;;;;4.15;1.60;;;;;;;;;;5054535;28;20379;-4
2021/05/20 05:38:20;;;;;;;1.38;1.27;;;;;;;;;;5054961;28;20025;-6
2021/05/20 05:40:46;;;;;;;2.47;2.22;;;;;;;;;;5054988;28;20024;-5
2021/05/20 05:43:11;;;;;;;2.72;1.55;;;;;;;;;;5054440;28;20056;-5
2021/05/20 05:45:36;;;;;;;6.80;1.90;;;;;;;;;;5054610;28;20021;-6
2021/05/20 05:48:03;;;;;;;1.65;1.02;;;;;;;;;;5054685;28;20044;-5
2021/05/20 05:50:28;;;;;;;1.45;0.88;;;;;;;;;;5054556;28;20051;-5
2021/05/20 05:52:54;;;;;;;1.48;0.80;;;;;;;;;;5054309;28;20437;-4
2021/05/20 05:55:19;;;;;;;1.77;1.25;;;;;;;;;;5054179;28;20103;-4
2021/05/20 05:57:45;;;;;;;1.65;1.10;;;;;;;;;;5054685;28;20033;-5
2021/05/20 06:00:10;;;;;;;2.20;1.05;;;;;;;;;;5054201;28;20511;-6
2021/05/20 06:02:43;;;;;;;1.67;1.58;;;;;;;;;;5054823;28;20029;-4
2021/05/20 06:05:09;;;;;;;1.55;1.08;;;;;;;;;;5054423;28;20522;-6
2021/05/20 06:07:35;;;;;;;1.33;1.00;;;;;;;;;;5054108;28;20020;-5
2021/05/20 06:10:01;;;;;;;1.10;0.90;;;;;;;;;;5054085;28;20044;-4
2021/05/20 06:12:27;;;;;;;0.88;0.80;;;;;;;;;;5053981;28;20116;-6
2021/05/20 06:14:52;;;;;;;1.65;1.13;;;;;;;;;;5053831;28;20140;-5
2021/05/20 06:17:18;;;;;;;1.70;1.00;;;;;;;;;;5054339;28;20352;-4
2021/05/20 06:19:44;;;;;;;4.18;1.40;;;;;;;;;;5053843;28;20036;-4
2021/05/20 06:22:09;;;;;;;3.95;0.90;;;;;;;;;;5053635;28;20017;-4
2021/05/20 06:24:34;;;;;;;5.03;0.88;;;;;;;;;;5053903;28;20103;-4
2021/05/20 06:27:00;;;;;;;1.60;0.90;;;;;;;;;;5053912;28;20021;-6
2021/05/20 06:29:25;;;;;;;0.80;0.80;;;;;;;;;;5053827;28;20029;-4
2021/05/20 06:31:50;;;;;;;2.22;1.00;;;;;;;;;;5053585;28;20514;-6
2021/05/20 06:34:16;;;;;;;1.10;0.80;;;;;;;;;;5053619;28;20037;-4
2021/05/20 06:36:41;;;;;;;1.15;0.60;;;;;;;;;;5053889;28;20515;-5
2021/05/20 06:39:08;;;;;;;1.15;0.88;;;;;;;;;;5053768;28;20100;-4
2021/05/20 06:41:34;;;;;;;1.42;0.70;;;;;;;;;;5053714;28;20016;-4
2021/05/20 06:43:59;;;;;;;1.23;0.60;;;;;;;;;;5053121;28;20495;-4
2021/05/20 06:46:25;;;;;;;2.85;0.60;;;;;;;;;;5053297;28;20021;-5
2021/05/20 06:48:50;;;;;;;1.27;1.17;;;;;;;;;;5053243;28;20215;-5
2021/05/20 06:51:16;;;;;;;1.98;0.93;;;;;;;;;;5053255;28;20067;-5
2021/05/20 06:53:42;;;;;;;2.80;1.00;;;;;;;;;;5053107;28;20033;-6
2021/05/20 06:56:15;;;;;;;1.00;0.75;;;;;;;;;;5053221;28;20059;-5
2021/05/20 07:01:25;;;;;;;4.40;0.82;;;;;;;;;;5052830;28;20102;-5
2021/05/20 07:03:51;;;;;;;1.42;0.70;;;;;;;;;;5052852;28;20463;-6
2021/05/20 07:06:17;;;;;;;1.48;0.80;;;;;;;;;;5053182;28;20049;-5
2021/05/20 07:08:42;;;;;;;0.93;0.63;;;;;;;;;;5053167;28;20056;-4
2021/05/20 07:11:08;;;;;;;0.75;0.70;;;;;;;;;;5051228;28;20025;-5
2021/05/20 07:13:33;;;;;;;1.92;0.98;;;;;;;;;;5052894;28;20016;-6
2021/05/20 07:15:59;;;;;;;1.23;0.95;;;;;;;;;;5051791;28;20043;-5
2021/05/20 07:18:24;;;;;;;0.82;0.60;;;;;;;;;;5053054;28;20020;-5
2021/05/20 07:20:49;;;;;;;0.80;0.70;;;;;;;;;;5052993;28;20039;-5
2021/05/20 07:23:16;;;;;;;0.50;0.47;;;;;;;;;;5052735;28;20368;-5
2021/05/20 07:25:42;;;;;;;2.20;0.40;;;;;;;;;;5052318;28;20080;-4
2021/05/20 07:28:08;;;;;;;0.45;0.45;;;;;;;;;;5052936;28;20024;-5
2021/05/20 07:30:33;;;;;;;0.28;0.28;;;;;;;;;;5052706;28;20123;-5
2021/05/20 07:32:59;;;;;;;0.50;0.50;;;;;;;;;;5052406;28;20036;-4
2021/05/20 07:35:24;;;;;;;2.90;0.73;;;;;;;;;;5052555;28;20037;-4
2021/05/20 07:37:50;;;;;;;0.47;0.40;;;;;;;;;;5052915;28;20043;-5
2021/05/20 07:40:16;;;;;;;1.83;0.50;;;;;;;;;;5052440;28;20380;-4
2021/05/20 07:42:41;;;;;;;0.52;0.40;;;;;;;;;;5052417;28;20017;-5
2021/05/20 07:45:07;;;;;;;5.57;0.63;;;;;;;;;;5052678;28;20025;-5
2021/05/20 07:47:32;;;;;;;1.15;0.70;;;;;;;;;;5052354;28;20027;-4
2021/05/20 07:49:58;;;;;;;0.45;0.30;;;;;;;;;;5052649;28;20041;-5
2021/05/20 07:52:23;;;;;;;0.68;0.68;;;;;;;;;;5052265;28;20013;-5
2021/05/20 07:54:49;;;;;;;1.23;0.50;;;;;;;;;;5052206;28;20099;-6
2021/05/20 07:57:15;;;;;;;0.60;0.40;;;;;;;;;;5052294;28;20361;-4
2021/05/20 07:59:40;;;;;;;1.02;0.60;;;;;;;;;;5052283;28;20029;-5
2021/05/20 08:04:47;;;;;;;1.30;0.40;;;;;;;;;;5052378;28;20029;-5
2021/05/20 08:07:26;;;;;;;0.60;0.30;;;;;;;;;;5052389;28;20384;-5
2021/05/20 08:12:29;;;;;;;1.02;0.47;;;;;;;;;;5052057;28;20491;-5
2021/05/20 08:14:55;;;;;;;0.73;0.50;;;;;;;;;;5052037;28;20025;-6
2021/05/20 08:17:20;;;;;;;1.75;0.50;;;;;;;;;;5052169;28;20127;-5
2021/05/20 08:19:45;;;;;;;0.68;0.40;;;;;;;;;;5052175;28;20025;-4
2021/05/20 08:22:11;;;;;;;0.65;0.40;;;;;;;;;;5052289;28;20032;-6
2021/05/20 08:24:36;;;;;;;0.52;0.30;;;;;;;;;;5052121;28;20040;-4
2021/05/20 08:27:01;;;;;;;2.13;0.73;;;;;;;;;;5051972;28;20037;-5
2021/05/20 08:29:28;;;;;;;0.30;0.30;;;;;;;;;;5052323;28;20017;-4
2021/05/20 08:31:54;;;;;;;0.30;0.30;;;;;;;;;;5051927;28;20032;-5
2021/05/20 08:34:19;;;;;;;0.63;0.30;;;;;;;;;;5051925;28;20415;-5
2021/05/20 08:36:45;;;;;;;0.45;0.40;;;;;;;;;;5053002;28;20031;-5
2021/05/20 08:39:10;;;;;;;0.70;0.70;;;;;;;;;;5056014;28;20048;-5
2021/05/20 08:41:36;;;;;;;0.30;0.30;;;;;;;;;;5055749;28;20369;-5
2021/05/20 08:44:11;;;;;;;5.28;0.22;;;;;;;;;;5055859;28;20083;-5
2021/05/20 08:46:37;;;;;;;0.43;0.40;;;;;;;;;;5056035;28;20588;-5
2021/05/20 08:49:06;;;;;;;0.63;0.57;;;;;;;;;;5055786;28;20033;-5
2021/05/20 08:51:31;;;;;;;1.38;0.38;;;;;;;;;;5055526;28;20104;-5
2021/05/20 08:53:57;;;;;;;1.00;0.52;;;;;;;;;;5055234;28;20129;-6
2021/05/20 08:56:24;;;;;;;1.60;0.45;;;;;;;;;;5055565;28;20025;-5
2021/05/20 08:58:49;;;;;;;0.25;0.20;;;;;;;;;;5055434;28;20024;-5
2021/05/20 09:01:37;;;;;;;5.30;0.43;;;;;;;;;;5055346;28;20079;-4
2021/05/20 09:04:03;;;;;;;1.10;0.95;;;;;;;;;;5054286;28;20033;-5
2021/05/20 09:06:38;;;;;;;0.40;0.40;;;;;;;;;;5055284;28;20345;-5
2021/05/20 09:09:10;;;;;;;1.17;0.38;;;;;;;;;;5055256;28;20031;-6
2021/05/20 09:11:35;;;;;;;0.50;0.50;;;;;;;;;;5055379;28;20480;-6
2021/05/20 09:14:04;;;;;;;0.28;0.28;;;;;;;;;;5055330;28;20079;-6
2021/05/20 09:16:34;;;;;;;1.23;0.93;;;;;;;;;;5053928;28;20551;-4
2021/05/20 09:19:00;;;;;;;0.88;0.43;;;;;;;;;;5054979;28;20017;-4
2021/05/20 09:21:26;;;;;;;0.47;0.47;;;;;;;;;;5055052;28;20044;-4
2021/05/20 09:23:52;;;;;;;1.88;0.40;;;;;;;;;;5055145;28;20024;-5
2021/05/20 09:26:17;;;;;;;0.30;0.30;;;;;;;;;;5054996;28;20032;-4
2021/05/20 09:28:46;;;;;;;0.30;0.30;;;;;;;;;;5055194;28;20099;-6
2021/05/20 09:31:16;;;;;;;0.63;0.40;;;;;;;;;;5054794;28;20029;-5
2021/05/20 09:33:54;;;;;;;0.10;0.10;;;;;;;;;;5054807;28;20032;-6
2021/05/20 09:36:21;;;;;;;1.13;0.70;;;;;;;;;;5055039;28;20537;-5
2021/05/20 09:38:46;;;;;;;0.40;0.40;;;;;;;;;;5054797;28;20488;-6
2021/05/20 09:41:16;;;;;;;0.40;0.30;;;;;;;;;;5054763;28;20036;-6
2021/05/20 09:43:44;;;;;;;0.52;0.45;;;;;;;;;;5054709;28;20025;-5
2021/05/20 09:46:11;;;;;;;0.68;0.55;;;;;;;;;;5054798;28;20395;-5
2021/05/20 09:48:40;;;;;;;0.30;0.30;;;;;;;;;;5054153;28;20464;-4
2021/05/20 09:51:07;;;;;;;0.95;0.30;;;;;;;;;;5054668;28;20029;-4
2021/05/20 09:53:43;;;;;;;0.77;0.50;;;;;;;;;;5053367;28;20052;-5
2021/05/20 09:56:09;;;;;;;0.43;0.40;;;;;;;;;;5053103;28;20041;-4
2021/05/20 09:58:35;;;;;;;0.63;0.30;;;;;;;;;;5054646;28;20049;-4
2021/05/20 10:01:01;;;;;;;0.50;0.50;;;;;;;;;;5054060;28;20480;-4
2021/05/20 10:03:28;;;;;;;0.32;0.28;;;;;;;;;;5054284;28;20056;-5
2021/05/20 10:05:56;;;;;;;0.40;0.40;;;;;;;;;;5054179;28;20025;-7
2021/05/20 10:08:22;;;;;;;1.58;0.52;;;;;;;;;;5054473;28;20109;-6
2021/05/20 10:10:49;;;;;;;0.50;0.45;;;;;;;;;;5054494;28;20048;-5
2021/05/20 10:13:16;;;;;;;3.60;0.60;;;;;;;;;;5052666;28;20464;-4
2021/05/20 10:15:41;;;;;;;1.05;0.40;;;;;;;;;;5053920;28;20505;-5
2021/05/20 10:18:08;;;;;;;0.40;0.40;;;;;;;;;;5054228;28;20017;-6
2021/05/20 10:20:34;;;;;;;1.35;0.60;;;;;;;;;;5054028;28;20056;-5
2021/05/20 10:23:00;;;;;;;0.60;0.60;;;;;;;;;;5053677;28;20024;-5
2021/05/20 10:25:26;;;;;;;0.30;0.20;;;;;;;;;;5054233;28;20036;-5
2021/05/20 10:27:52;;;;;;;0.30;0.30;;;;;;;;;;5054076;28;20106;-5
2021/05/20 10:30:18;;;;;;;0.40;0.40;;;;;;;;;;5053650;28;20079;-4
2021/05/20 10:32:45;;;;;;;0.47;0.28;;;;;;;;;;5053680;28;20460;-3
2021/05/20 10:35:15;;;;;;;0.35;0.30;;;;;;;;;;5052203;28;20064;-5
2021/05/20 10:37:41;;;;;;;9.35;0.52;;;;;;;;;;5053569;28;20092;-5
2021/05/20 10:40:10;;;;;;;0.70;0.60;;;;;;;;;;5053513;28;20055;-5
2021/05/20 10:42:37;;;;;;;0.30;0.20;;;;;;;;;;5053809;28;20048;-5
2021/05/20 10:45:15;;;;;;;0.20;0.20;;;;;;;;;;5052326;28;20033;-5
2021/05/20 10:47:59;;;;;;;0.50;0.40;;;;;;;;;;5053665;28;20040;-5
2021/05/20 10:50:44;;;;;;;0.70;0.40;;;;;;;;;;5053647;28;20025;-6
2021/05/20 10:53:10;;;;;;;0.40;0.30;;;;;;;;;;5053075;28;20039;-5
2021/05/20 10:55:38;;;;;;;0.10;0.10;;;;;;;;;;5053139;28;20119;-5
2021/05/20 10:58:04;;;;;;;0.63;0.60;;;;;;;;;;5053036;28;20032;-6
2021/05/20 11:00:36;;;;;;;0.30;0.30;;;;;;;;;;5052433;28;20037;-4
2021/05/20 11:03:02;;;;;;;0.47;0.45;;;;;;;;;;5053326;28;20018;-5
2021/05/20 11:05:48;;;;;;;1.90;1.00;;;;;;;;;;5053026;28;20021;-4
2021/05/20 11:08:25;;;;;;;0.30;0.30;;;;;;;;;;5048947;28;20504;-5
2021/05/20 11:10:50;;;;;;;0.40;0.40;;;;;;;;;;5053032;28;20115;-5
2021/05/20 11:13:34;;;;;;;0.22;0.22;;;;;;;;;;5053091;28;20104;-4
2021/05/20 11:15:59;;;;;;;;;;;;;;;;;;5053261;28;20645;-5
2021/05/20 11:18:34;;;;;;;0.40;0.20;;;;;;;;;;5051670;28;19979;-6
2021/05/20 11:21:00;;;;;;;0.50;0.40;;;;;;;;;;5052670;28;20052;-5
2021/05/20 11:23:26;;;;;;;1.52;0.38;;;;;;;;;;5051524;28;20017;-6
2021/05/20 11:26:08;;;;;;;0.60;0.60;;;;;;;;;;5052737;28;20033;-5
2021/05/20 11:28:39;;;;;;;0.55;0.43;;;;;;;;;;5053036;28;20025;-5
2021/05/20 11:31:05;;;;;;;0.10;0.10;;;;;;;;;;5052500;28;20040;-5
2021/05/20 11:33:36;;;;;;;0.63;0.40;;;;;;;;;;5052600;28;20023;-5
2021/05/20 11:38:27;;;;;;;0.28;0.28;;;;;;;;;;5052676;28;20017;-5
2021/05/20 11:40:53;;;;;;;0.45;0.45;;;;;;;;;;5052428;28;20037;-4
2021/05/20 11:43:28;;;;;;;1.17;0.30;;;;;;;;;;5052473;28;20100;-6
2021/05/20 11:45:53;;;;;;;0.73;0.32;;;;;;;;;;5052717;28;20040;-6
2021/05/20 11:48:19;;;;;;;0.43;0.35;;;;;;;;;;5052336;28;20029;-4
2021/05/20 11:50:51;;;;;;;0.63;0.40;;;;;;;;;;5052419;28;20028;-5
2021/05/20 11:53:16;;;;;;;0.50;0.40;;;;;;;;;;5052603;28;20112;-6
2021/05/20 11:55:43;;;;;;;0.45;0.32;;;;;;;;;;5052038;28;20727;-5
2021/05/20 11:58:08;;;;;;;1.08;0.65;;;;;;;;;;5052534;28;20035;-5
2021/05/20 12:00:33;;;;;;;0.32;0.32;;;;;;;;;;5052275;28;20040;-5
2021/05/20 12:02:59;;;;;;;0.43;0.40;;;;;;;;;;5052411;28;20026;-4
2021/05/20 12:05:24;;;;;;;0.40;0.40;;;;;;;;;;5052626;28;20032;-6
2021/05/20 12:07:50;;;;;;;0.20;0.20;;;;;;;;;;5051021;28;20053;-5
2021/05/20 12:10:17;;;;;;;0.45;0.40;;;;;;;;;;5052717;28;20151;-6
2021/05/20 12:12:45;;;;;;;0.32;0.20;;;;;;;;;;5056548;28;20104;-5
2021/05/20 12:15:14;;;;;;;0.30;0.30;;;;;;;;;;5056466;28;20042;-5
2021/05/20 12:17:40;;;;;;;0.60;0.50;;;;;;;;;;5054875;28;20029;-6
2021/05/20 12:20:06;;;;;;;0.20;0.20;;;;;;;;;;5056217;28;20376;-6
2021/05/20 12:22:32;;;;;;;0.82;0.45;;;;;;;;;;5056148;28;20036;-4
2021/05/20 12:25:03;;;;;;;0.98;0.50;;;;;;;;;;5056203;28;20029;-5
2021/05/20 12:27:29;;;;;;;0.40;0.38;;;;;;;;;;5056142;28;20070;-4
2021/05/20 12:29:58;;;;;;;1.05;0.20;;;;;;;;;;5056279;28;20099;-6
2021/05/20 12:32:23;;;;;;;0.40;0.40;;;;;;;;;;5055977;28;20033;-4
2021/05/20 12:35:05;;;;;;;0.40;0.30;;;;;;;;;;5055869;28;20468;-5
2021/05/20 12:37:38;;;;;;;1.38;0.75;;;;;;;;;;5056228;28;20487;-5
2021/05/20 12:40:04;;;;;;;;;;;;;;;;;;5056448;28;20434;-5
2021/05/20 12:42:29;;;;;;;0.57;0.30;;;;;;;;;;5054538;28;20011;-5
2021/05/20 12:45:01;;;;;;;0.40;0.40;;;;;;;;;;5055679;28;20122;-6
2021/05/20 12:47:26;;;;;;;1.02;0.60;;;;;;;;;;5056030;28;20388;-5
2021/05/20 12:49:55;;;;;;;0.40;0.32;;;;;;;;;;5055762;28;20017;-5
2021/05/20 12:52:20;;;;;;;9.57;0.70;;;;;;;;;;5055763;28;20167;-4
2021/05/20 12:54:46;;;;;;;0.30;0.25;;;;;;;;;;5055560;28;20128;-4
2021/05/20 12:57:11;;;;;;;0.28;0.25;;;;;;;;;;5055479;28;20459;-5
2021/05/20 12:59:38;;;;;;;0.30;0.30;;;;;;;;;;5055743;28;20043;-6
2021/05/20 13:02:07;;;;;;;1.38;0.60;;;;;;;;;;5055365;28;20048;-4
2021/05/20 13:04:33;;;;;;;0.30;0.30;;;;;;;;;;5055462;28;20099;-5
2021/05/20 13:07:04;;;;;;;0.40;0.30;;;;;;;;;;5055583;28;20061;-6
2021/05/20 13:09:41;;;;;;;3.85;0.55;;;;;;;;;;5055327;28;20043;-5
2021/05/20 13:12:21;;;;;;;0.88;0.52;;;;;;;;;;5055143;28;20040;-5
2021/05/20 13:15:15;;;;;;;5.53;0.40;;;;;;;;;;5055105;28;20123;-6
2021/05/20 13:23:19;;;;;;;2.35;0.60;;;;;;;;;;5054516;28;20036;-6
2021/05/20 13:25:45;;;;;;;2.72;0.55;;;;;;;;;;5055321;28;20428;-4
2021/05/20 13:28:10;;;;;;;0.45;0.28;;;;;;;;;;5055128;28;20052;-5
2021/05/20 13:30:41;;;;;;;0.70;0.40;;;;;;;;;;5054921;28;20037;-5
2021/05/20 13:33:09;;;;;;;0.43;0.40;;;;;;;;;;5055336;28;20028;-6
2021/05/20 13:35:34;;;;;;;0.63;0.40;;;;;;;;;;5054740;28;20392;-5
2021/05/20 13:38:00;;;;;;;1.33;0.50;;;;;;;;;;5054623;28;20017;-5
2021/05/20 13:40:28;;;;;;;1.15;0.45;;;;;;;;;;5055091;28;20032;-6
2021/05/20 13:42:54;;;;;;;0.60;0.50;;;;;;;;;;5054633;28;20024;-4
2021/05/20 13:45:21;;;;;;;0.32;0.30;;;;;;;;;;5054878;28;20033;-5
2021/05/20 13:47:47;;;;;;;0.88;0.45;;;;;;;;;;5054864;28;20021;-5
2021/05/20 13:50:13;;;;;;;0.60;0.50;;;;;;;;;;5054684;28;20103;-5
2021/05/20 13:52:41;;;;;;;0.05;0.05;;;;;;;;;;5054575;28;20516;-4
2021/05/20 13:55:07;;;;;;;1.35;0.70;;;;;;;;;;5054196;28;20063;-5
2021/05/20 13:57:33;;;;;;;0.40;0.40;;;;;;;;;;5054358;28;20032;-5
2021/05/20 13:59:59;;;;;;;0.57;0.30;;;;;;;;;;5054254;28;20037;-4
2021/05/20 14:02:34;;;;;;;0.35;0.35;;;;;;;;;;5054607;28;20017;-5
2021/05/20 14:05:00;;;;;;;0.65;0.50;;;;;;;;;;5054270;28;20036;-6
2021/05/20 14:07:26;;;;;;;0.20;0.20;;;;;;;;;;5054301;28;20086;-6
2021/05/20 14:09:51;;;;;;;0.45;0.40;;;;;;;;;;5054207;28;20073;-4
2021/05/20 14:12:17;;;;;;;0.32;0.30;;;;;;;;;;5054028;28;20047;-5
2021/05/20 14:14:47;;;;;;;1.00;0.40;;;;;;;;;;5054253;28;20037;-4
2021/05/20 14:17:13;;;;;;;0.22;0.22;;;;;;;;;;5053975;28;20025;-4
2021/05/20 14:19:40;;;;;;;0.20;0.20;;;;;;;;;;5052721;28;20031;-5
2021/05/20 14:22:06;;;;;;;0.43;0.20;;;;;;;;;;5054163;28;20422;-5
2021/05/20 14:24:31;;;;;;;0.30;0.22;;;;;;;;;;5053929;28;20098;-6
2021/05/20 14:26:57;;;;;;;2.90;0.20;;;;;;;;;;5053794;28;20062;-4
2021/05/20 14:29:23;;;;;;;0.30;0.20;;;;;;;;;;5053869;28;20357;-4
2021/05/20 14:31:49;;;;;;;0.45;0.28;;;;;;;;;;5053654;28;20468;-4
2021/05/20 14:34:15;;;;;;;2.28;0.28;;;;;;;;;;5052505;28;20108;-4
2021/05/20 14:36:41;;;;;;;0.47;0.20;;;;;;;;;;5052427;28;20025;-5
2021/05/20 14:39:09;;;;;;;0.30;0.25;;;;;;;;;;5053739;28;20349;-5
2021/05/20 14:41:34;;;;;;;0.20;0.20;;;;;;;;;;5053666;28;20028;-6
2021/05/20 14:44:00;;;;;;;0.10;0.10;;;;;;;;;;5053434;28;20234;-5
2021/05/20 14:46:25;;;;;;;0.32;0.20;;;;;;;;;;5053739;28;20056;-4
2021/05/20 14:48:51;;;;;;;0.20;0.20;;;;;;;;;;5053460;28;20056;-5
2021/05/20 14:51:19;;;;;;;1.88;0.25;;;;;;;;;;5053308;28;20032;-5
2021/05/20 14:53:53;;;;;;;1.17;0.20;;;;;;;;;;5053371;28;20100;-4
2021/05/20 15:06:55;;;;;;;0.80;0.30;;;;;;;;;;5053436;28;20375;-5
2021/05/20 15:09:39;;;;;;;0.35;0.30;;;;;;;;;;5053046;28;20009;-6
2021/05/20 15:12:26;;;;;;;0.50;0.30;;;;;;;;;;5052903;28;20465;-5
2021/05/20 15:14:56;;;;;;;0.73;0.40;;;;;;;;;;5052929;28;20041;-5
2021/05/20 15:17:26;;;;;;;0.30;0.30;;;;;;;;;;5052926;28;20025;-4
2021/05/20 15:19:51;;;;;;;0.20;0.10;;;;;;;;;;5052830;28;20029;-6
2021/05/20 15:22:16;;;;;;;0.38;0.20;;;;;;;;;;5053001;28;20047;-5